sensor_id;sensor_type;location;lat;lon;timestamp;P1;durP1;ratioP1;P2;durP2;ratioP2
12826;SDS011;66927;48.812;9.118;2023-03-01T00:01:29;15.47;;;12.00;;
12826;SDS011;66927;48.812;9.118;2023-03-01T00:03:56;15.93;;;12.07;;
12826;SDS011;66927;48.812;9.118;2023-03-01T00:06:22;15.77;;;11.40;;
12826;SDS011;66927;48.812;9.118;2023-03-01T00:08:49;16.23;;;12.20;;
12826;SDS011;66927;48.812;9.118;2023-03-01T00:13:42;17.70;;;11.80;;
12826;SDS011;66927;48.812;9.118;2023-03-01T00:16:15;17.67;;;12.53;;
12826;SDS011;66927;48.812;9.118;2023-03-01T00:18:43;17.83;;;12.50;;
12826;SDS011;66927;48.812;9.118;2023-03-01T00:21:09;15.27;;;10.87;;
12826;SDS011;66927;48.812;9.118;2023-03-01T00:23:35;19.23;;;13.30;;
12826;SDS011;66927;48.812;9.118;2023-03-01T00:26:02;16.67;;;11.07;;
12826;SDS011;66927;48.812;9.118;2023-03-01T00:28:31;19.13;;;13.00;;
12826;SDS011;66927;48.812;9.118;2023-03-01T00:31:02;18.37;;;12.73;;
12826;SDS011;66927;48.812;9.118;2023-03-01T00:33:31;17.10;;;12.57;;
12826;SDS011;66927;48.812;9.118;2023-03-01T00:35:58;17.27;;;12.30;;
12826;SDS011;66927;48.812;9.118;2023-03-01T00:38:24;19.23;;;12.77;;
12826;SDS011;66927;48.812;9.118;2023-03-01T00:40:51;16.80;;;12.73;;
12826;SDS011;66927;48.812;9.118;2023-03-01T00:43:16;18.13;;;12.50;;
12826;SDS011;66927;48.812;9.118;2023-03-01T00:45:42;17.53;;;12.70;;
12826;SDS011;66927;48.812;9.118;2023-03-01T00:48:08;16.77;;;11.87;;
12826;SDS011;66927;48.812;9.118;2023-03-01T00:50:34;18.03;;;12.00;;
12826;SDS011;66927;48.812;9.118;2023-03-01T00:53:00;19.70;;;12.10;;
12826;SDS011;66927;48.812;9.118;2023-03-01T00:55:25;19.97;;;13.23;;
12826;SDS011;66927;48.812;9.118;2023-03-01T00:57:51;17.20;;;12.30;;
12826;SDS011;66927;48.812;9.118;2023-03-01T01:00:18;17.50;;;12.47;;
12826;SDS011;66927;48.812;9.118;2023-03-01T01:02:44;19.30;;;13.13;;
12826;SDS011;66927;48.812;9.118;2023-03-01T01:05:10;19.20;;;12.33;;
12826;SDS011;66927;48.812;9.118;2023-03-01T01:07:37;18.43;;;12.93;;
12826;SDS011;66927;48.812;9.118;2023-03-01T01:10:03;16.77;;;11.93;;
12826;SDS011;66927;48.812;9.118;2023-03-01T01:12:29;16.73;;;11.40;;
12826;SDS011;66927;48.812;9.118;2023-03-01T01:14:56;17.10;;;12.60;;
12826;SDS011;66927;48.812;9.118;2023-03-01T01:17:22;20.97;;;13.30;;
12826;SDS011;66927;48.812;9.118;2023-03-01T01:19:47;20.77;;;13.63;;
12826;SDS011;66927;48.812;9.118;2023-03-01T01:22:13;19.67;;;14.00;;
12826;SDS011;66927;48.812;9.118;2023-03-01T01:24:39;19.87;;;14.60;;
12826;SDS011;66927;48.812;9.118;2023-03-01T01:27:04;22.17;;;14.57;;
12826;SDS011;66927;48.812;9.118;2023-03-01T01:29:32;22.73;;;14.63;;
12826;SDS011;66927;48.812;9.118;2023-03-01T01:31:58;19.53;;;13.73;;
12826;SDS011;66927;48.812;9.118;2023-03-01T01:34:23;20.00;;;13.20;;
12826;SDS011;66927;48.812;9.118;2023-03-01T01:36:50;24.43;;;14.33;;
12826;SDS011;66927;48.812;9.118;2023-03-01T01:39:18;21.30;;;14.37;;
12826;SDS011;66927;48.812;9.118;2023-03-01T01:41:44;19.33;;;14.33;;
12826;SDS011;66927;48.812;9.118;2023-03-01T01:47:00;17.53;;;12.67;;
12826;SDS011;66927;48.812;9.118;2023-03-01T01:54:40;21.67;;;14.17;;
12826;SDS011;66927;48.812;9.118;2023-03-01T01:57:12;19.33;;;13.40;;
12826;SDS011;66927;48.812;9.118;2023-03-01T01:59:42;17.40;;;12.80;;
12826;SDS011;66927;48.812;9.118;2023-03-01T02:02:12;19.53;;;13.60;;
12826;SDS011;66927;48.812;9.118;2023-03-01T02:04:40;18.40;;;13.27;;
12826;SDS011;66927;48.812;9.118;2023-03-01T02:07:09;20.13;;;14.10;;
12826;SDS011;66927;48.812;9.118;2023-03-01T02:09:45;18.93;;;13.13;;
12826;SDS011;66927;48.812;9.118;2023-03-01T02:12:13;19.23;;;13.67;;
12826;SDS011;66927;48.812;9.118;2023-03-01T02:14:42;17.23;;;12.77;;
12826;SDS011;66927;48.812;9.118;2023-03-01T02:17:08;19.27;;;14.13;;
12826;SDS011;66927;48.812;9.118;2023-03-01T02:22:41;17.77;;;13.07;;
12826;SDS011;66927;48.812;9.118;2023-03-01T02:30:30;19.57;;;13.97;;
12826;SDS011;66927;48.812;9.118;2023-03-01T02:32:57;20.80;;;14.33;;
12826;SDS011;66927;48.812;9.118;2023-03-01T02:35:28;19.07;;;14.03;;
12826;SDS011;66927;48.812;9.118;2023-03-01T02:38:00;19.63;;;13.40;;
12826;SDS011;66927;48.812;9.118;2023-03-01T02:40:28;19.10;;;13.43;;
12826;SDS011;66927;48.812;9.118;2023-03-01T02:42:56;17.20;;;12.87;;
12826;SDS011;66927;48.812;9.118;2023-03-01T02:45:24;18.40;;;13.27;;
12826;SDS011;66927;48.812;9.118;2023-03-01T02:47:53;21.30;;;13.90;;
12826;SDS011;66927;48.812;9.118;2023-03-01T02:55:48;19.83;;;14.20;;
12826;SDS011;66927;48.812;9.118;2023-03-01T02:58:14;20.80;;;14.00;;
12826;SDS011;66927;48.812;9.118;2023-03-01T03:00:41;19.63;;;14.20;;
12826;SDS011;66927;48.812;9.118;2023-03-01T03:03:15;19.27;;;12.93;;
12826;SDS011;66927;48.812;9.118;2023-03-01T03:05:44;16.13;;;12.43;;
12826;SDS011;66927;48.812;9.118;2023-03-01T03:08:09;16.33;;;12.60;;
12826;SDS011;66927;48.812;9.118;2023-03-01T03:10:37;20.60;;;14.07;;
12826;SDS011;66927;48.812;9.118;2023-03-01T03:13:06;18.60;;;14.03;;
12826;SDS011;66927;48.812;9.118;2023-03-01T03:15:36;19.63;;;14.00;;
12826;SDS011;66927;48.812;9.118;2023-03-01T03:18:10;18.83;;;13.87;;
12826;SDS011;66927;48.812;9.118;2023-03-01T03:20:39;19.70;;;14.20;;
12826;SDS011;66927;48.812;9.118;2023-03-01T03:23:06;18.43;;;13.40;;
12826;SDS011;66927;48.812;9.118;2023-03-01T03:25:31;19.57;;;14.10;;
12826;SDS011;66927;48.812;9.118;2023-03-01T03:27:58;17.23;;;13.50;;
12826;SDS011;66927;48.812;9.118;2023-03-01T03:30:25;17.53;;;12.57;;
12826;SDS011;66927;48.812;9.118;2023-03-01T03:32:56;17.40;;;13.37;;
12826;SDS011;66927;48.812;9.118;2023-03-01T03:35:29;17.67;;;13.33;;
12826;SDS011;66927;48.812;9.118;2023-03-01T03:37:56;16.40;;;12.20;;
12826;SDS011;66927;48.812;9.118;2023-03-01T03:40:34;16.27;;;12.93;;
12826;SDS011;66927;48.812;9.118;2023-03-01T03:43:03;19.07;;;13.47;;
12826;SDS011;66927;48.812;9.118;2023-03-01T03:45:30;20.63;;;14.10;;
12826;SDS011;66927;48.812;9.118;2023-03-01T03:47:58;20.13;;;13.50;;
12826;SDS011;66927;48.812;9.118;2023-03-01T03:50:25;19.47;;;13.63;;
12826;SDS011;66927;48.812;9.118;2023-03-01T03:52:50;18.40;;;13.47;;
12826;SDS011;66927;48.812;9.118;2023-03-01T03:55:16;18.13;;;12.80;;
12826;SDS011;66927;48.812;9.118;2023-03-01T03:57:44;19.47;;;14.50;;
12826;SDS011;66927;48.812;9.118;2023-03-01T04:00:17;20.97;;;14.50;;
12826;SDS011;66927;48.812;9.118;2023-03-01T04:02:44;20.30;;;13.90;;
12826;SDS011;66927;48.812;9.118;2023-03-01T04:05:13;17.63;;;12.93;;
12826;SDS011;66927;48.812;9.118;2023-03-01T04:07:40;20.13;;;14.13;;
12826;SDS011;66927;48.812;9.118;2023-03-01T04:10:08;19.90;;;13.80;;
12826;SDS011;66927;48.812;9.118;2023-03-01T04:12:36;18.57;;;13.67;;
12826;SDS011;66927;48.812;9.118;2023-03-01T04:15:03;20.27;;;14.40;;
12826;SDS011;66927;48.812;9.118;2023-03-01T04:17:38;20.17;;;14.23;;
12826;SDS011;66927;48.812;9.118;2023-03-01T04:20:04;18.30;;;12.97;;
12826;SDS011;66927;48.812;9.118;2023-03-01T04:22:31;19.77;;;13.63;;
12826;SDS011;66927;48.812;9.118;2023-03-01T04:24:58;21.87;;;13.23;;
12826;SDS011;66927;48.812;9.118;2023-03-01T04:27:31;17.23;;;12.90;;
12826;SDS011;66927;48.812;9.118;2023-03-01T04:30:01;18.97;;;13.60;;
12826;SDS011;66927;48.812;9.118;2023-03-01T04:32:30;17.03;;;12.53;;
12826;SDS011;66927;48.812;9.118;2023-03-01T04:34:56;18.37;;;13.63;;
12826;SDS011;66927;48.812;9.118;2023-03-01T04:37:22;18.07;;;13.77;;
12826;SDS011;66927;48.812;9.118;2023-03-01T04:39:49;18.83;;;13.50;;
12826;SDS011;66927;48.812;9.118;2023-03-01T04:42:14;19.00;;;13.50;;
12826;SDS011;66927;48.812;9.118;2023-03-01T04:44:41;18.53;;;13.67;;
12826;SDS011;66927;48.812;9.118;2023-03-01T04:47:08;19.83;;;13.07;;
12826;SDS011;66927;48.812;9.118;2023-03-01T04:49:35;17.10;;;13.33;;
12826;SDS011;66927;48.812;9.118;2023-03-01T04:52:02;18.70;;;13.37;;
12826;SDS011;66927;48.812;9.118;2023-03-01T04:54:29;21.27;;;13.60;;
12826;SDS011;66927;48.812;9.118;2023-03-01T04:57:00;21.47;;;14.90;;
12826;SDS011;66927;48.812;9.118;2023-03-01T04:59:26;20.63;;;14.87;;
12826;SDS011;66927;48.812;9.118;2023-03-01T05:01:53;17.73;;;13.07;;
12826;SDS011;66927;48.812;9.118;2023-03-01T05:04:22;16.77;;;13.57;;
12826;SDS011;66927;48.812;9.118;2023-03-01T05:06:49;22.87;;;15.03;;
12826;SDS011;66927;48.812;9.118;2023-03-01T05:09:15;19.20;;;13.83;;
12826;SDS011;66927;48.812;9.118;2023-03-01T05:11:41;17.90;;;13.73;;
12826;SDS011;66927;48.812;9.118;2023-03-01T05:14:07;20.90;;;14.47;;
12826;SDS011;66927;48.812;9.118;2023-03-01T05:16:34;21.67;;;14.60;;
12826;SDS011;66927;48.812;9.118;2023-03-01T05:19:01;23.33;;;13.83;;
12826;SDS011;66927;48.812;9.118;2023-03-01T05:21:36;25.50;;;14.80;;
12826;SDS011;66927;48.812;9.118;2023-03-01T05:24:23;18.07;;;13.67;;
12826;SDS011;66927;48.812;9.118;2023-03-01T05:26:49;17.47;;;13.10;;
12826;SDS011;66927;48.812;9.118;2023-03-01T05:29:17;17.03;;;13.10;;
12826;SDS011;66927;48.812;9.118;2023-03-01T05:31:44;21.20;;;14.37;;
12826;SDS011;66927;48.812;9.118;2023-03-01T05:34:09;17.93;;;13.33;;
12826;SDS011;66927;48.812;9.118;2023-03-01T05:36:37;20.03;;;14.73;;
12826;SDS011;66927;48.812;9.118;2023-03-01T05:39:03;18.20;;;13.17;;
12826;SDS011;66927;48.812;9.118;2023-03-01T05:41:29;19.77;;;13.43;;
12826;SDS011;66927;48.812;9.118;2023-03-01T05:43:55;19.57;;;13.77;;
12826;SDS011;66927;48.812;9.118;2023-03-01T05:46:21;19.50;;;14.27;;
12826;SDS011;66927;48.812;9.118;2023-03-01T05:48:49;17.87;;;13.73;;
12826;SDS011;66927;48.812;9.118;2023-03-01T05:51:15;20.37;;;14.90;;
12826;SDS011;66927;48.812;9.118;2023-03-01T05:53:40;19.20;;;14.40;;
12826;SDS011;66927;48.812;9.118;2023-03-01T05:56:06;23.23;;;14.80;;
12826;SDS011;66927;48.812;9.118;2023-03-01T05:58:32;19.37;;;14.47;;
12826;SDS011;66927;48.812;9.118;2023-03-01T06:00:58;18.73;;;14.37;;
12826;SDS011;66927;48.812;9.118;2023-03-01T06:03:24;20.20;;;15.07;;
12826;SDS011;66927;48.812;9.118;2023-03-01T06:05:50;21.60;;;14.63;;
12826;SDS011;66927;48.812;9.118;2023-03-01T06:08:21;19.13;;;14.97;;
12826;SDS011;66927;48.812;9.118;2023-03-01T06:10:51;19.27;;;14.47;;
12826;SDS011;66927;48.812;9.118;2023-03-01T06:13:22;20.67;;;15.00;;
12826;SDS011;66927;48.812;9.118;2023-03-01T06:15:48;33.50;;;19.07;;
12826;SDS011;66927;48.812;9.118;2023-03-01T06:18:14;32.73;;;18.90;;
12826;SDS011;66927;48.812;9.118;2023-03-01T06:20:40;39.93;;;22.40;;
12826;SDS011;66927;48.812;9.118;2023-03-01T06:23:06;35.77;;;21.43;;
12826;SDS011;66927;48.812;9.118;2023-03-01T06:25:32;26.03;;;16.37;;
12826;SDS011;66927;48.812;9.118;2023-03-01T06:27:58;31.00;;;17.20;;
12826;SDS011;66927;48.812;9.118;2023-03-01T06:30:24;27.63;;;18.03;;
12826;SDS011;66927;48.812;9.118;2023-03-01T06:32:51;35.23;;;20.10;;
12826;SDS011;66927;48.812;9.118;2023-03-01T06:35:17;23.23;;;17.33;;
12826;SDS011;66927;48.812;9.118;2023-03-01T06:37:44;24.67;;;14.70;;
12826;SDS011;66927;48.812;9.118;2023-03-01T06:40:11;21.17;;;14.70;;
12826;SDS011;66927;48.812;9.118;2023-03-01T06:42:39;19.50;;;14.37;;
12826;SDS011;66927;48.812;9.118;2023-03-01T06:45:06;20.60;;;14.93;;
12826;SDS011;66927;48.812;9.118;2023-03-01T06:47:32;27.77;;;16.40;;
12826;SDS011;66927;48.812;9.118;2023-03-01T06:49:59;26.20;;;16.50;;
12826;SDS011;66927;48.812;9.118;2023-03-01T06:52:26;24.57;;;16.27;;
12826;SDS011;66927;48.812;9.118;2023-03-01T06:54:51;21.23;;;14.53;;
12826;SDS011;66927;48.812;9.118;2023-03-01T06:57:18;20.77;;;15.57;;
12826;SDS011;66927;48.812;9.118;2023-03-01T06:59:44;21.80;;;15.87;;
12826;SDS011;66927;48.812;9.118;2023-03-01T07:02:11;21.17;;;15.50;;
12826;SDS011;66927;48.812;9.118;2023-03-01T07:04:38;21.57;;;15.70;;
12826;SDS011;66927;48.812;9.118;2023-03-01T07:07:04;23.30;;;15.03;;
12826;SDS011;66927;48.812;9.118;2023-03-01T07:09:30;21.17;;;15.30;;
12826;SDS011;66927;48.812;9.118;2023-03-01T07:11:55;21.70;;;15.50;;
12826;SDS011;66927;48.812;9.118;2023-03-01T07:14:21;22.93;;;15.80;;
12826;SDS011;66927;48.812;9.118;2023-03-01T07:16:49;19.97;;;14.90;;
12826;SDS011;66927;48.812;9.118;2023-03-01T07:19:15;20.70;;;14.80;;
12826;SDS011;66927;48.812;9.118;2023-03-01T07:21:41;22.10;;;15.27;;
12826;SDS011;66927;48.812;9.118;2023-03-01T07:24:08;22.50;;;15.67;;
12826;SDS011;66927;48.812;9.118;2023-03-01T07:26:34;21.83;;;15.33;;
12826;SDS011;66927;48.812;9.118;2023-03-01T07:29:00;21.90;;;15.00;;
12826;SDS011;66927;48.812;9.118;2023-03-01T07:31:26;22.93;;;16.43;;
12826;SDS011;66927;48.812;9.118;2023-03-01T07:33:55;22.23;;;17.23;;
12826;SDS011;66927;48.812;9.118;2023-03-01T07:36:20;23.73;;;16.20;;
12826;SDS011;66927;48.812;9.118;2023-03-01T07:38:46;21.20;;;15.70;;
12826;SDS011;66927;48.812;9.118;2023-03-01T07:41:12;20.90;;;16.27;;
12826;SDS011;66927;48.812;9.118;2023-03-01T07:43:38;22.90;;;17.03;;
12826;SDS011;66927;48.812;9.118;2023-03-01T07:46:04;25.10;;;17.40;;
12826;SDS011;66927;48.812;9.118;2023-03-01T07:48:30;23.80;;;17.30;;
12826;SDS011;66927;48.812;9.118;2023-03-01T07:51:00;23.97;;;16.40;;
12826;SDS011;66927;48.812;9.118;2023-03-01T07:53:27;24.37;;;16.73;;
12826;SDS011;66927;48.812;9.118;2023-03-01T07:56:11;21.93;;;16.37;;
12826;SDS011;66927;48.812;9.118;2023-03-01T07:58:38;22.83;;;16.77;;
12826;SDS011;66927;48.812;9.118;2023-03-01T08:01:07;25.00;;;17.53;;
12826;SDS011;66927;48.812;9.118;2023-03-01T08:03:34;22.93;;;15.97;;
12826;SDS011;66927;48.812;9.118;2023-03-01T08:06:02;23.63;;;16.47;;
12826;SDS011;66927;48.812;9.118;2023-03-01T08:08:29;22.13;;;16.70;;
12826;SDS011;66927;48.812;9.118;2023-03-01T08:10:58;20.63;;;15.63;;
12826;SDS011;66927;48.812;9.118;2023-03-01T08:13:26;25.27;;;16.70;;
12826;SDS011;66927;48.812;9.118;2023-03-01T08:15:52;24.73;;;17.73;;
12826;SDS011;66927;48.812;9.118;2023-03-01T08:18:18;24.17;;;16.50;;
12826;SDS011;66927;48.812;9.118;2023-03-01T08:20:45;22.80;;;17.63;;
12826;SDS011;66927;48.812;9.118;2023-03-01T08:23:11;25.40;;;17.87;;
12826;SDS011;66927;48.812;9.118;2023-03-01T08:25:38;24.77;;;16.80;;
12826;SDS011;66927;48.812;9.118;2023-03-01T08:28:04;22.83;;;16.83;;
12826;SDS011;66927;48.812;9.118;2023-03-01T08:30:30;21.80;;;17.43;;
12826;SDS011;66927;48.812;9.118;2023-03-01T08:32:56;22.07;;;16.33;;
12826;SDS011;66927;48.812;9.118;2023-03-01T08:35:22;23.27;;;17.67;;
12826;SDS011;66927;48.812;9.118;2023-03-01T08:37:48;23.17;;;17.07;;
12826;SDS011;66927;48.812;9.118;2023-03-01T08:40:14;21.73;;;17.30;;
12826;SDS011;66927;48.812;9.118;2023-03-01T08:42:40;24.43;;;17.47;;
12826;SDS011;66927;48.812;9.118;2023-03-01T08:45:08;25.43;;;17.10;;
12826;SDS011;66927;48.812;9.118;2023-03-01T08:47:34;23.60;;;17.40;;
12826;SDS011;66927;48.812;9.118;2023-03-01T08:50:00;20.77;;;17.07;;
12826;SDS011;66927;48.812;9.118;2023-03-01T08:52:26;27.30;;;17.87;;
12826;SDS011;66927;48.812;9.118;2023-03-01T08:54:52;28.17;;;18.63;;
12826;SDS011;66927;48.812;9.118;2023-03-01T08:57:18;22.97;;;16.50;;
12826;SDS011;66927;48.812;9.118;2023-03-01T08:59:44;24.93;;;15.87;;
12826;SDS011;66927;48.812;9.118;2023-03-01T09:02:11;24.10;;;17.30;;
12826;SDS011;66927;48.812;9.118;2023-03-01T09:04:40;22.33;;;16.27;;
12826;SDS011;66927;48.812;9.118;2023-03-01T09:07:07;19.97;;;16.03;;
12826;SDS011;66927;48.812;9.118;2023-03-01T09:09:33;21.40;;;16.60;;
12826;SDS011;66927;48.812;9.118;2023-03-01T09:11:59;24.93;;;18.37;;
12826;SDS011;66927;48.812;9.118;2023-03-01T09:14:26;20.97;;;17.23;;
12826;SDS011;66927;48.812;9.118;2023-03-01T09:16:51;20.60;;;16.50;;
12826;SDS011;66927;48.812;9.118;2023-03-01T09:19:17;20.63;;;16.77;;
12826;SDS011;66927;48.812;9.118;2023-03-01T09:21:43;18.93;;;16.30;;
12826;SDS011;66927;48.812;9.118;2023-03-01T09:24:26;22.87;;;18.03;;
12826;SDS011;66927;48.812;9.118;2023-03-01T09:26:53;23.67;;;17.87;;
12826;SDS011;66927;48.812;9.118;2023-03-01T09:29:20;23.33;;;16.80;;
12826;SDS011;66927;48.812;9.118;2023-03-01T09:31:46;23.67;;;17.70;;
12826;SDS011;66927;48.812;9.118;2023-03-01T09:34:12;24.17;;;17.67;;
12826;SDS011;66927;48.812;9.118;2023-03-01T09:36:41;26.60;;;16.77;;
12826;SDS011;66927;48.812;9.118;2023-03-01T09:39:06;23.20;;;18.17;;
12826;SDS011;66927;48.812;9.118;2023-03-01T09:44:16;21.27;;;17.27;;
12826;SDS011;66927;48.812;9.118;2023-03-01T09:47:03;21.30;;;16.93;;
12826;SDS011;66927;48.812;9.118;2023-03-01T09:49:30;22.93;;;18.00;;
12826;SDS011;66927;48.812;9.118;2023-03-01T09:51:59;21.97;;;17.30;;
12826;SDS011;66927;48.812;9.118;2023-03-01T09:54:47;21.10;;;16.27;;
12826;SDS011;66927;48.812;9.118;2023-03-01T09:57:33;21.40;;;17.30;;
12826;SDS011;66927;48.812;9.118;2023-03-01T10:08:26;23.47;;;17.17;;
12826;SDS011;66927;48.812;9.118;2023-03-01T10:11:03;19.57;;;15.93;;
12826;SDS011;66927;48.812;9.118;2023-03-01T10:16:43;23.50;;;17.67;;
12826;SDS011;66927;48.812;9.118;2023-03-01T10:19:23;20.57;;;16.60;;
12826;SDS011;66927;48.812;9.118;2023-03-01T10:22:19;27.73;;;17.40;;
12826;SDS011;66927;48.812;9.118;2023-03-01T10:24:53;24.43;;;16.17;;
12826;SDS011;66927;48.812;9.118;2023-03-01T10:32:19;23.27;;;17.70;;
12826;SDS011;66927;48.812;9.118;2023-03-01T10:34:50;18.63;;;16.07;;
12826;SDS011;66927;48.812;9.118;2023-03-01T10:37:17;22.87;;;17.17;;
12826;SDS011;66927;48.812;9.118;2023-03-01T10:40:06;20.27;;;16.60;;
12826;SDS011;66927;48.812;9.118;2023-03-01T10:42:34;18.93;;;16.57;;
12826;SDS011;66927;48.812;9.118;2023-03-01T10:48:13;17.20;;;15.40;;
12826;SDS011;66927;48.812;9.118;2023-03-01T10:50:42;20.03;;;16.70;;
12826;SDS011;66927;48.812;9.118;2023-03-01T10:53:22;17.97;;;16.07;;
12826;SDS011;66927;48.812;9.118;2023-03-01T10:56:02;18.23;;;16.27;;
12826;SDS011;66927;48.812;9.118;2023-03-01T10:58:31;16.43;;;14.80;;
12826;SDS011;66927;48.812;9.118;2023-03-01T11:00:59;19.60;;;16.53;;
12826;SDS011;66927;48.812;9.118;2023-03-01T11:06:30;17.53;;;15.73;;
12826;SDS011;66927;48.812;9.118;2023-03-01T11:08:56;19.50;;;17.53;;
12826;SDS011;66927;48.812;9.118;2023-03-01T11:11:34;16.77;;;15.00;;
12826;SDS011;66927;48.812;9.118;2023-03-01T11:16:27;15.68;;;14.23;;
12826;SDS011;66927;48.812;9.118;2023-03-01T11:19:14;16.13;;;14.73;;
12826;SDS011;66927;48.812;9.118;2023-03-01T11:24:19;16.00;;;14.60;;
12826;SDS011;66927;48.812;9.118;2023-03-01T11:26:54;16.65;;;15.07;;
12826;SDS011;66927;48.812;9.118;2023-03-01T11:29:33;16.02;;;14.65;;
12826;SDS011;66927;48.812;9.118;2023-03-01T11:32:11;16.20;;;14.90;;
12826;SDS011;66927;48.812;9.118;2023-03-01T11:34:51;15.88;;;14.38;;
12826;SDS011;66927;48.812;9.118;2023-03-01T11:37:34;14.90;;;13.55;;
12826;SDS011;66927;48.812;9.118;2023-03-01T11:40:54;15.10;;;13.80;;
12826;SDS011;66927;48.812;9.118;2023-03-01T11:43:39;15.15;;;13.85;;
12826;SDS011;66927;48.812;9.118;2023-03-01T11:51:24;15.00;;;13.70;;
12826;SDS011;66927;48.812;9.118;2023-03-01T12:03:03;14.73;;;13.48;;
12826;SDS011;66927;48.812;9.118;2023-03-01T12:06:05;15.30;;;14.00;;
12826;SDS011;66927;48.812;9.118;2023-03-01T12:08:41;15.13;;;13.93;;
12826;SDS011;66927;48.812;9.118;2023-03-01T12:38:49;14.98;;;13.68;;
12826;SDS011;66927;48.812;9.118;2023-03-01T12:42:25;15.48;;;14.20;;
12826;SDS011;66927;48.812;9.118;2023-03-01T12:50:57;15.13;;;13.80;;
12826;SDS011;66927;48.812;9.118;2023-03-01T12:53:07;15.57;;;14.20;;
12826;SDS011;66927;48.812;9.118;2023-03-01T12:55:44;15.07;;;13.88;;
12826;SDS011;66927;48.812;9.118;2023-03-01T13:01:05;15.77;;;14.52;;
12826;SDS011;66927;48.812;9.118;2023-03-01T13:07:13;14.18;;;12.98;;
12826;SDS011;66927;48.812;9.118;2023-03-01T13:10:06;15.25;;;13.73;;
12826;SDS011;66927;48.812;9.118;2023-03-01T13:17:48;13.93;;;12.82;;
12826;SDS011;66927;48.812;9.118;2023-03-01T13:20:18;15.55;;;14.25;;
12826;SDS011;66927;48.812;9.118;2023-03-01T13:25:27;15.43;;;14.13;;
12826;SDS011;66927;48.812;9.118;2023-03-01T13:27:52;14.98;;;13.77;;
12826;SDS011;66927;48.812;9.118;2023-03-01T13:30:57;14.32;;;12.98;;
12826;SDS011;66927;48.812;9.118;2023-03-01T13:35:53;14.85;;;13.55;;
12826;SDS011;66927;48.812;9.118;2023-03-01T13:41:14;15.70;;;14.20;;
12826;SDS011;66927;48.812;9.118;2023-03-01T13:43:46;15.68;;;14.38;;
12826;SDS011;66927;48.812;9.118;2023-03-01T13:48:50;15.80;;;14.23;;
12826;SDS011;66927;48.812;9.118;2023-03-01T13:51:25;15.48;;;13.98;;
12826;SDS011;66927;48.812;9.118;2023-03-01T13:53:53;15.50;;;14.13;;
12826;SDS011;66927;48.812;9.118;2023-03-01T13:59:05;15.82;;;14.43;;
12826;SDS011;66927;48.812;9.118;2023-03-01T14:01:38;16.13;;;14.48;;
12826;SDS011;66927;48.812;9.118;2023-03-01T14:04:26;16.20;;;14.80;;
12826;SDS011;66927;48.812;9.118;2023-03-01T14:06:52;15.05;;;13.85;;
12826;SDS011;66927;48.812;9.118;2023-03-01T14:09:42;15.07;;;13.77;;
12826;SDS011;66927;48.812;9.118;2023-03-01T14:20:02;16.70;;;14.95;;
12826;SDS011;66927;48.812;9.118;2023-03-01T14:22:40;16.10;;;14.70;;
12826;SDS011;66927;48.812;9.118;2023-03-01T14:27:45;15.80;;;14.35;;
12826;SDS011;66927;48.812;9.118;2023-03-01T14:32:57;16.30;;;14.77;;
12826;SDS011;66927;48.812;9.118;2023-03-01T14:35:31;17.25;;;15.75;;
12826;SDS011;66927;48.812;9.118;2023-03-01T14:38:00;18.05;;;16.35;;
12826;SDS011;66927;48.812;9.118;2023-03-01T14:42:57;15.55;;;14.25;;
12826;SDS011;66927;48.812;9.118;2023-03-01T14:45:27;16.65;;;15.20;;
12826;SDS011;66927;48.812;9.118;2023-03-01T14:47:55;15.55;;;13.60;;
12826;SDS011;66927;48.812;9.118;2023-03-01T14:50:26;17.98;;;16.30;;
12826;SDS011;66927;48.812;9.118;2023-03-01T14:52:55;17.52;;;16.02;;
12826;SDS011;66927;48.812;9.118;2023-03-01T14:55:31;16.25;;;14.85;;
12826;SDS011;66927;48.812;9.118;2023-03-01T14:58:02;16.55;;;14.98;;
12826;SDS011;66927;48.812;9.118;2023-03-01T15:00:36;16.92;;;15.30;;
12826;SDS011;66927;48.812;9.118;2023-03-01T15:03:05;16.88;;;15.43;;
12826;SDS011;66927;48.812;9.118;2023-03-01T15:05:38;17.38;;;15.77;;
12826;SDS011;66927;48.812;9.118;2023-03-01T15:08:05;17.33;;;15.80;;
12826;SDS011;66927;48.812;9.118;2023-03-01T15:10:35;17.60;;;15.90;;
12826;SDS011;66927;48.812;9.118;2023-03-01T15:13:20;17.43;;;15.77;;
12826;SDS011;66927;48.812;9.118;2023-03-01T15:15:48;17.27;;;15.60;;
12826;SDS011;66927;48.812;9.118;2023-03-01T15:18:17;17.70;;;16.00;;
12826;SDS011;66927;48.812;9.118;2023-03-01T15:20:50;17.70;;;15.60;;
12826;SDS011;66927;48.812;9.118;2023-03-01T15:23:21;17.17;;;15.57;;
12826;SDS011;66927;48.812;9.118;2023-03-01T15:25:52;18.40;;;16.30;;
12826;SDS011;66927;48.812;9.118;2023-03-01T15:28:22;18.60;;;16.13;;
12826;SDS011;66927;48.812;9.118;2023-03-01T15:31:22;18.67;;;16.30;;
12826;SDS011;66927;48.812;9.118;2023-03-01T15:34:06;17.50;;;15.70;;
12826;SDS011;66927;48.812;9.118;2023-03-01T15:36:49;18.53;;;16.03;;
12826;SDS011;66927;48.812;9.118;2023-03-01T15:41:55;18.60;;;16.60;;
12826;SDS011;66927;48.812;9.118;2023-03-01T15:44:28;17.73;;;15.90;;
12826;SDS011;66927;48.812;9.118;2023-03-01T15:46:55;18.10;;;15.97;;
12826;SDS011;66927;48.812;9.118;2023-03-01T15:49:26;19.10;;;16.23;;
12826;SDS011;66927;48.812;9.118;2023-03-01T15:52:12;16.80;;;15.03;;
12826;SDS011;66927;48.812;9.118;2023-03-01T15:54:44;17.40;;;15.37;;
12826;SDS011;66927;48.812;9.118;2023-03-01T15:57:13;18.03;;;15.97;;
12826;SDS011;66927;48.812;9.118;2023-03-01T15:59:40;18.13;;;15.07;;
12826;SDS011;66927;48.812;9.118;2023-03-01T16:02:11;20.63;;;15.83;;
12826;SDS011;66927;48.812;9.118;2023-03-01T16:04:40;17.33;;;14.93;;
12826;SDS011;66927;48.812;9.118;2023-03-01T16:07:06;19.43;;;16.63;;
12826;SDS011;66927;48.812;9.118;2023-03-01T16:09:34;18.93;;;15.33;;
12826;SDS011;66927;48.812;9.118;2023-03-01T16:12:00;21.47;;;16.37;;
12826;SDS011;66927;48.812;9.118;2023-03-01T16:14:28;18.77;;;15.37;;
12826;SDS011;66927;48.812;9.118;2023-03-01T16:16:54;17.10;;;15.30;;
12826;SDS011;66927;48.812;9.118;2023-03-01T16:19:20;20.70;;;15.03;;
12826;SDS011;66927;48.812;9.118;2023-03-01T16:21:45;20.43;;;15.07;;
12826;SDS011;66927;48.812;9.118;2023-03-01T16:24:12;19.30;;;15.70;;
12826;SDS011;66927;48.812;9.118;2023-03-01T16:26:38;17.63;;;14.40;;
12826;SDS011;66927;48.812;9.118;2023-03-01T16:29:04;20.57;;;15.70;;
12826;SDS011;66927;48.812;9.118;2023-03-01T16:31:30;17.33;;;14.67;;
12826;SDS011;66927;48.812;9.118;2023-03-01T16:33:56;18.73;;;15.83;;
12826;SDS011;66927;48.812;9.118;2023-03-01T16:36:24;20.03;;;16.20;;
12826;SDS011;66927;48.812;9.118;2023-03-01T16:38:53;18.53;;;14.90;;
12826;SDS011;66927;48.812;9.118;2023-03-01T16:41:22;18.83;;;15.43;;
12826;SDS011;66927;48.812;9.118;2023-03-01T16:43:50;18.83;;;15.13;;
12826;SDS011;66927;48.812;9.118;2023-03-01T16:46:18;18.90;;;14.00;;
12826;SDS011;66927;48.812;9.118;2023-03-01T16:48:49;16.63;;;14.80;;
12826;SDS011;66927;48.812;9.118;2023-03-01T16:51:16;17.37;;;13.73;;
12826;SDS011;66927;48.812;9.118;2023-03-01T16:53:42;17.77;;;15.20;;
12826;SDS011;66927;48.812;9.118;2023-03-01T16:56:09;17.30;;;14.07;;
12826;SDS011;66927;48.812;9.118;2023-03-01T16:58:36;20.00;;;16.23;;
12826;SDS011;66927;48.812;9.118;2023-03-01T17:01:07;18.70;;;15.60;;